Terminal Aerodrome Forecast
Issued by NWS Raleigh/Durham, NC

Home | Current Version | Previous Version | Text Only | Print | Product List | Glossary On
Versions: 1 2 3 4 5 6 7 8 9 10 11 12 13 14 15 16
000
FTUS42 KRAH 210310 AAB
TAFFAY
TAF AMD
KFAY 210310Z 2103/2124 00000KT 1SM BR SKC
      TEMPO 2103/2107 1/4SM FG OVC005
     FM210700 00000KT 1/2SM FG OVC005
     FM211000 VRB02KT 1/2SM FG OVC001
     FM211500 15004KT 2SM BR OVC008=

USA.gov is the U.S. government's official web portal to all federal, state and local government web resources and services.